createdAt,value
2022-08-11T00:01:47.558Z,89.93
2022-08-11T00:04:52.191Z,88.38
2022-08-11T00:07:58.376Z,87.79
2022-08-11T00:11:04.429Z,89.39
2022-08-11T00:14:19.763Z,89.22
2022-08-11T00:17:29.908Z,90.71
2022-08-11T00:20:39.735Z,91.03
2022-08-11T00:23:45.656Z,88.58
2022-08-11T00:26:51.000Z,90.61
2022-08-11T00:29:54.935Z,91.89
2022-08-11T00:32:59.790Z,94.19
2022-08-11T00:36:05.410Z,92.75
2022-08-11T00:39:11.555Z,93.66
2022-08-11T00:42:27.491Z,92.72
2022-08-11T00:45:36.922Z,92.28
2022-08-11T00:48:51.477Z,95.92
2022-08-11T00:52:18.665Z,97.98
2022-08-11T00:56:10.512Z,97.04
2022-08-11T00:59:56.315Z,98.76
2022-08-11T01:03:21.626Z,98.19
2022-08-11T01:07:06.914Z,100.00
2022-08-11T01:10:56.602Z,100.00
2022-08-11T01:14:50.499Z,100.00
2022-08-11T01:18:38.224Z,100.00
2022-08-11T01:22:50.167Z,100.00
2022-08-11T01:26:39.359Z,100.00
2022-08-11T01:30:37.182Z,100.00
2022-08-11T01:34:18.936Z,100.00
2022-08-11T01:38:05.761Z,100.00
2022-08-11T01:41:53.073Z,100.00
2022-08-11T01:45:16.040Z,100.00
2022-08-11T01:48:40.546Z,100.00
2022-08-11T01:52:04.627Z,100.00
2022-08-11T01:55:21.995Z,100.00
2022-08-11T01:58:43.697Z,100.00
2022-08-11T02:02:45.887Z,100.00
2022-08-11T02:06:01.600Z,100.00
2022-08-11T02:09:14.483Z,100.00
2022-08-11T02:12:42.266Z,100.00
2022-08-11T02:16:16.734Z,100.00
2022-08-11T02:19:50.935Z,100.00
2022-08-11T02:23:58.766Z,100.00
2022-08-11T02:26:48.251Z,100.00
2022-08-11T02:30:05.060Z,100.00
2022-08-11T02:33:23.225Z,100.00
2022-08-11T02:36:38.070Z,100.00
2022-08-11T02:39:56.924Z,100.00
2022-08-11T02:43:11.132Z,100.00
2022-08-11T02:46:30.214Z,100.00
2022-08-11T02:50:02.662Z,100.00
2022-08-11T02:53:18.377Z,100.00
2022-08-11T02:56:44.478Z,100.00
2022-08-11T02:59:55.170Z,100.00
2022-08-11T03:03:16.387Z,100.00
2022-08-11T03:06:35.613Z,100.00
2022-08-11T03:09:48.340Z,100.00
2022-08-11T03:13:16.641Z,100.00
2022-08-11T03:16:44.397Z,100.00
2022-08-11T03:20:02.988Z,100.00
2022-08-11T03:23:19.688Z,100.00
2022-08-11T03:26:48.485Z,100.00
2022-08-11T03:30:06.797Z,100.00
2022-08-11T03:33:41.887Z,100.00
2022-08-11T03:37:37.862Z,100.00
2022-08-11T03:42:01.824Z,100.00
2022-08-11T03:45:04.457Z,100.00
2022-08-11T03:48:21.154Z,100.00
2022-08-11T03:51:51.487Z,100.00
2022-08-11T03:55:07.461Z,100.00
2022-08-11T03:58:46.729Z,100.00
2022-08-11T04:02:28.535Z,100.00
2022-08-11T04:06:22.063Z,100.00
2022-08-11T04:10:03.098Z,100.00
2022-08-11T04:13:55.606Z,100.00
2022-08-11T04:17:38.207Z,100.00
2022-08-11T04:21:04.028Z,100.00
2022-08-11T04:24:52.492Z,100.00
2022-08-11T04:28:31.545Z,100.00
2022-08-11T04:31:49.576Z,100.00
2022-08-11T04:35:20.613Z,100.00
2022-08-11T04:38:47.014Z,100.00
2022-08-11T04:42:32.677Z,100.00
2022-08-11T04:46:07.506Z,100.00
2022-08-11T04:49:54.063Z,100.00
2022-08-11T04:53:46.274Z,100.00
2022-08-11T04:57:23.880Z,100.00
2022-08-11T05:00:52.344Z,100.00
2022-08-11T05:05:04.786Z,100.00
2022-08-11T05:08:38.544Z,100.00
2022-08-11T05:12:24.387Z,100.00
2022-08-11T05:15:59.913Z,100.00
2022-08-11T05:19:22.686Z,100.00
2022-08-11T05:22:48.980Z,100.00
2022-08-11T05:26:48.023Z,100.00
2022-08-11T05:30:01.805Z,100.00
2022-08-11T05:33:33.071Z,100.00
2022-08-11T05:36:45.247Z,100.00
2022-08-11T05:40:14.040Z,100.00
2022-08-11T05:43:35.373Z,100.00
2022-08-11T05:46:59.314Z,100.00
2022-08-11T05:50:31.036Z,100.00
2022-08-11T05:53:52.538Z,100.00
2022-08-11T05:57:00.323Z,100.00
2022-08-11T06:00:10.175Z,100.00
2022-08-11T06:03:26.333Z,100.00
2022-08-11T06:06:30.465Z,100.00
2022-08-11T06:09:35.961Z,100.00
2022-08-11T06:12:41.545Z,100.00
2022-08-11T06:15:47.561Z,100.00
2022-08-11T06:18:51.185Z,100.00
2022-08-11T06:21:55.461Z,100.00
2022-08-11T06:25:01.492Z,100.00
2022-08-11T06:28:08.730Z,100.00
2022-08-11T06:31:18.017Z,100.00
2022-08-11T06:34:36.882Z,100.00
2022-08-11T06:37:59.075Z,100.00
2022-08-11T06:41:26.612Z,100.00
2022-08-11T06:44:35.023Z,100.00
2022-08-11T06:47:45.195Z,100.00
2022-08-11T06:51:11.773Z,100.00
2022-08-11T06:54:16.027Z,100.00
2022-08-11T06:57:38.300Z,100.00
2022-08-11T07:00:43.422Z,100.00
2022-08-11T07:03:49.793Z,100.00
2022-08-11T07:07:31.958Z,100.00
2022-08-11T07:11:07.593Z,96.20
2022-08-11T07:14:35.057Z,100.00
2022-08-11T07:17:49.332Z,95.47
2022-08-11T07:21:59.925Z,100.00
2022-08-11T07:25:15.207Z,96.38
2022-08-11T07:28:41.964Z,92.25
2022-08-11T07:31:51.108Z,87.70
2022-08-11T07:35:01.533Z,84.75
2022-08-11T07:38:09.283Z,86.19
2022-08-11T07:41:15.503Z,85.73
2022-08-11T07:44:19.459Z,76.90
2022-08-11T07:47:41.321Z,74.93
2022-08-11T07:51:04.500Z,75.03
2022-08-11T07:54:17.053Z,71.00
2022-08-11T07:58:14.188Z,66.74
2022-08-11T08:01:22.539Z,66.98
2022-08-11T08:04:47.223Z,61.89
2022-08-11T08:08:09.525Z,60.95
2022-08-11T08:11:30.797Z,59.38
2022-08-11T08:14:52.625Z,58.75
2022-08-11T08:18:20.352Z,61.04
2022-08-11T08:21:21.189Z,60.78
2022-08-11T08:24:26.697Z,56.82
2022-08-11T08:27:30.123Z,56.82
2022-08-11T08:30:51.085Z,57.86
2022-08-11T08:33:55.133Z,57.59
2022-08-11T08:36:58.788Z,49.83
2022-08-11T08:40:03.319Z,52.61
2022-08-11T08:43:10.970Z,50.96
2022-08-11T08:46:15.309Z,50.38
2022-08-11T08:49:23.508Z,48.01
2022-08-11T08:52:32.082Z,48.01
2022-08-11T08:55:45.310Z,46.90
2022-08-11T08:58:51.567Z,48.55
2022-08-11T09:02:00.988Z,45.88
2022-08-11T09:05:05.832Z,46.57
2022-08-11T09:08:09.907Z,46.54
2022-08-11T09:11:32.960Z,45.93
2022-08-11T09:14:56.257Z,45.64
2022-08-11T09:18:06.475Z,44.19
2022-08-11T09:21:09.683Z,47.05
2022-08-11T09:24:30.995Z,41.76
2022-08-11T09:27:37.851Z,41.51
2022-08-11T09:30:43.604Z,40.10
2022-08-11T09:33:47.645Z,40.71
2022-08-11T09:37:08.804Z,40.88
2022-08-11T09:40:30.216Z,40.69
2022-08-11T09:43:54.193Z,37.12
2022-08-11T09:46:59.512Z,38.62
2022-08-11T09:50:04.121Z,37.76
2022-08-11T09:53:36.255Z,39.81
2022-08-11T09:56:50.959Z,38.34
2022-08-11T10:00:12.316Z,37.54
2022-08-11T10:03:21.428Z,37.91
2022-08-11T10:06:43.382Z,36.47
2022-08-11T10:09:51.905Z,38.88
2022-08-11T10:13:02.979Z,37.10
2022-08-11T10:16:16.137Z,36.63
2022-08-11T10:19:22.422Z,37.24
2022-08-11T10:22:43.797Z,35.64
2022-08-11T10:26:05.268Z,36.17
2022-08-11T10:29:25.062Z,37.04
2022-08-11T10:32:58.698Z,36.59
2022-08-11T10:36:03.727Z,37.04
2022-08-11T10:39:22.047Z,36.44
2022-08-11T10:42:57.137Z,36.65
2022-08-11T10:46:18.861Z,35.43
2022-08-11T10:49:35.058Z,34.87
2022-08-11T10:52:57.679Z,34.93
2022-08-11T10:56:19.001Z,33.99
2022-08-11T10:59:24.112Z,35.18
2022-08-11T11:02:28.162Z,33.50
2022-08-11T11:05:33.836Z,34.71
2022-08-11T11:08:57.689Z,34.27
2022-08-11T11:12:35.894Z,33.34
2022-08-11T11:16:01.620Z,32.52
2022-08-11T11:19:10.052Z,32.60
2022-08-11T11:22:34.736Z,34.02
2022-08-11T11:26:07.291Z,31.69
2022-08-11T11:29:32.943Z,32.91
2022-08-11T11:32:49.579Z,31.54
2022-08-11T11:36:05.844Z,32.11
2022-08-11T11:39:10.837Z,31.20
2022-08-11T11:42:15.521Z,30.58
2022-08-11T11:45:22.747Z,30.39
2022-08-11T11:48:28.848Z,29.63
2022-08-11T11:51:32.604Z,28.86
2022-08-11T11:54:38.816Z,30.55
2022-08-11T11:58:02.667Z,29.67
2022-08-11T12:01:20.043Z,28.85
2022-08-11T12:04:24.022Z,28.42
2022-08-11T12:07:45.018Z,28.09
2022-08-11T12:11:22.017Z,28.49
2022-08-11T12:14:27.591Z,28.19
2022-08-11T12:17:31.054Z,28.58
2022-08-11T12:20:34.444Z,27.76
2022-08-11T12:24:04.107Z,28.51
2022-08-11T12:27:25.489Z,27.82
2022-08-11T12:30:29.896Z,26.39
2022-08-11T12:33:35.172Z,26.50
2022-08-11T12:36:43.269Z,26.29
2022-08-11T12:40:16.285Z,26.71
2022-08-11T12:43:56.863Z,26.63
2022-08-11T12:47:03.022Z,27.39
2022-08-11T12:50:25.946Z,26.75
2022-08-11T12:53:33.054Z,27.47
2022-08-11T12:57:00.173Z,26.46
2022-08-11T13:00:25.415Z,26.45
2022-08-11T13:03:51.992Z,25.85
2022-08-11T13:06:59.936Z,26.15
2022-08-11T13:10:06.576Z,25.64
2022-08-11T13:13:54.419Z,25.53
2022-08-11T13:16:54.150Z,25.71
2022-08-11T13:19:59.229Z,26.38
2022-08-11T13:23:03.145Z,25.78
2022-08-11T13:26:08.027Z,25.03
2022-08-11T13:29:11.839Z,24.44
2022-08-11T13:32:17.409Z,26.02
2022-08-11T13:35:21.381Z,25.58
2022-08-11T13:38:26.299Z,24.94
2022-08-11T13:41:41.020Z,23.65
2022-08-11T13:44:44.851Z,23.67
2022-08-11T13:47:50.038Z,23.47
2022-08-11T13:51:10.747Z,23.94
2022-08-11T13:54:19.148Z,23.15
2022-08-11T13:58:18.179Z,23.22
2022-08-11T14:00:52.542Z,23.61
2022-08-11T14:04:30.552Z,22.18
2022-08-11T14:07:35.941Z,22.21
2022-08-11T14:10:40.112Z,23.11
2022-08-11T14:13:48.151Z,23.44
2022-08-11T14:16:55.376Z,22.63
2022-08-11T14:20:38.441Z,22.26
2022-08-11T14:23:30.274Z,22.11
2022-08-11T14:26:38.834Z,22.50
2022-08-11T14:29:49.187Z,21.33
2022-08-11T14:32:55.504Z,22.02
2022-08-11T14:36:00.898Z,23.69
2022-08-11T14:39:08.806Z,22.35
2022-08-11T14:42:33.522Z,22.72
2022-08-11T14:45:58.821Z,22.79
2022-08-11T14:49:02.748Z,21.92
2022-08-11T14:52:11.333Z,21.59
2022-08-11T14:55:33.184Z,21.95
2022-08-11T14:58:37.774Z,22.43
2022-08-11T15:01:59.655Z,22.79
2022-08-11T15:05:04.916Z,21.13
2022-08-11T15:08:10.164Z,22.02
2022-08-11T15:11:29.439Z,22.03
2022-08-11T15:14:50.309Z,21.46
2022-08-11T15:18:01.696Z,21.64
2022-08-11T15:21:23.499Z,22.06
2022-08-11T15:24:31.034Z,21.54
2022-08-11T15:27:53.107Z,21.40
2022-08-11T15:31:16.297Z,21.58
2022-08-11T15:34:43.604Z,20.95
2022-08-11T15:37:48.182Z,21.98
2022-08-11T15:41:19.450Z,22.14
2022-08-11T15:45:01.566Z,21.55
2022-08-11T15:48:10.873Z,19.66
2022-08-11T15:51:25.484Z,21.91
2022-08-11T15:54:33.165Z,22.35
2022-08-11T15:57:56.998Z,23.70
2022-08-11T16:01:31.215Z,23.74
2022-08-11T16:04:38.321Z,22.35
2022-08-11T16:07:42.593Z,23.76
2022-08-11T16:10:47.305Z,22.70
2022-08-11T16:14:15.092Z,24.04
2022-08-11T16:17:20.677Z,23.67
2022-08-11T16:20:28.202Z,23.15
2022-08-11T16:23:31.468Z,23.72
2022-08-11T16:27:08.420Z,22.77
2022-08-11T16:30:05.815Z,24.09
2022-08-11T16:33:49.204Z,24.32
2022-08-11T16:36:53.045Z,24.72
2022-08-11T16:39:56.282Z,23.92
2022-08-11T16:43:17.796Z,25.34
2022-08-11T16:46:41.004Z,25.10
2022-08-11T16:49:52.570Z,25.40
2022-08-11T16:52:56.049Z,25.04
2022-08-11T16:56:03.465Z,24.89
2022-08-11T16:59:17.880Z,25.71
2022-08-11T17:02:40.061Z,25.98
2022-08-11T17:06:05.352Z,25.53
2022-08-11T17:09:29.153Z,25.40
2022-08-11T17:12:52.810Z,25.12
2022-08-11T17:16:08.111Z,27.29
2022-08-11T17:19:16.190Z,25.78
2022-08-11T17:22:39.089Z,25.29
2022-08-11T17:26:03.706Z,26.51
2022-08-11T17:29:07.279Z,27.53
2022-08-11T17:32:55.845Z,26.78
2022-08-11T17:36:03.907Z,26.45
2022-08-11T17:39:09.001Z,28.28
2022-08-11T17:42:30.468Z,28.59
2022-08-11T17:45:51.332Z,27.89
2022-08-11T17:48:54.588Z,28.16
2022-08-11T17:52:17.187Z,29.36
2022-08-11T17:55:51.902Z,29.46
2022-08-11T17:59:15.877Z,29.61
2022-08-11T18:02:53.661Z,31.24
2022-08-11T18:10:52.164Z,32.02
2022-08-11T18:14:47.401Z,32.96
2022-08-11T18:22:20.515Z,32.45
2022-08-11T18:25:50.074Z,34.39
2022-08-11T18:29:14.735Z,35.64
2022-08-11T18:32:49.658Z,36.02
2022-08-11T18:36:17.420Z,37.15
2022-08-11T18:39:40.954Z,36.21
2022-08-11T18:43:06.222Z,35.99
2022-08-11T18:46:30.307Z,36.34
2022-08-11T18:50:02.279Z,37.22
2022-08-11T18:53:27.899Z,37.77
2022-08-11T18:56:49.911Z,37.05
2022-08-11T19:00:14.408Z,37.10
2022-08-11T19:03:48.359Z,37.56
2022-08-11T19:07:18.697Z,38.45
2022-08-11T19:10:42.354Z,37.98
2022-08-11T19:14:06.032Z,38.01
2022-08-11T19:17:43.912Z,38.77
2022-08-11T19:21:07.799Z,39.19
2022-08-11T19:24:33.291Z,39.54
2022-08-11T19:27:58.312Z,40.91
2022-08-11T19:31:19.256Z,42.32
2022-08-11T19:34:43.860Z,42.99
2022-08-11T19:38:06.136Z,42.64
2022-08-11T19:41:52.115Z,43.04
2022-08-11T19:45:09.795Z,46.19
2022-08-11T19:48:32.263Z,46.34
2022-08-11T19:51:56.144Z,51.45
2022-08-11T19:55:18.346Z,50.88
2022-08-11T19:58:39.837Z,55.01
2022-08-11T20:02:12.451Z,54.22
2022-08-11T20:05:34.095Z,55.15
2022-08-11T20:09:01.400Z,54.58
2022-08-11T20:12:24.419Z,53.15
2022-08-11T20:15:46.185Z,55.64
2022-08-11T20:19:10.425Z,58.64
2022-08-11T20:22:33.218Z,54.63
2022-08-11T20:26:08.435Z,49.98
2022-08-11T20:29:37.418Z,48.41
2022-08-11T20:33:06.322Z,48.62
2022-08-11T20:36:27.815Z,49.43
2022-08-11T20:39:51.128Z,48.84
2022-08-11T20:44:04.967Z,50.16
2022-08-11T20:46:57.492Z,47.32
2022-08-11T20:50:20.449Z,47.91
2022-08-11T20:53:43.697Z,46.09
2022-08-11T20:57:12.648Z,45.23
2022-08-11T21:00:39.606Z,46.10
2022-08-11T21:04:00.926Z,46.58
2022-08-11T21:07:28.617Z,46.36
2022-08-11T21:10:54.427Z,46.89
2022-08-11T21:14:18.812Z,47.89
2022-08-11T21:17:43.534Z,49.91
2022-08-11T21:21:26.946Z,52.96
2022-08-11T21:24:50.622Z,56.14
2022-08-11T21:28:15.456Z,58.31
2022-08-11T21:31:39.051Z,59.11
2022-08-11T21:35:02.443Z,60.66
2022-08-11T21:38:24.550Z,61.84
2022-08-11T21:41:49.066Z,64.14
2022-08-11T21:45:10.731Z,66.77
2022-08-11T21:48:32.087Z,67.32
2022-08-11T21:51:54.341Z,68.06
2022-08-11T21:55:16.718Z,68.92
2022-08-11T21:58:37.833Z,70.07
2022-08-11T22:01:59.192Z,70.97
2022-08-11T22:05:19.676Z,72.39
2022-08-11T22:08:41.781Z,71.73
2022-08-11T22:12:33.689Z,73.45
2022-08-11T22:15:43.327Z,74.26
2022-08-11T22:19:06.379Z,76.55
2022-08-11T22:22:29.922Z,79.63
2022-08-11T22:25:55.061Z,78.87
2022-08-11T22:29:21.250Z,78.15
2022-08-11T22:33:02.995Z,80.45
2022-08-11T22:36:24.627Z,82.97
2022-08-11T22:40:02.443Z,82.96
2022-08-11T22:43:26.431Z,86.76
2022-08-11T22:46:49.127Z,89.55
2022-08-11T22:50:14.411Z,88.87
2022-08-11T22:53:57.150Z,90.56
2022-08-11T22:57:18.507Z,92.64
2022-08-11T23:00:40.557Z,96.28
2022-08-11T23:04:01.666Z,97.79
2022-08-11T23:07:49.385Z,97.21
2022-08-11T23:11:05.127Z,95.86
2022-08-11T23:14:26.194Z,97.54
2022-08-11T23:17:51.727Z,97.69
2022-08-11T23:21:13.149Z,100.00
2022-08-11T23:24:35.211Z,99.04
2022-08-11T23:27:57.147Z,99.28
2022-08-11T23:31:18.902Z,100.00
2022-08-11T23:35:03.689Z,100.00
2022-08-11T23:38:25.826Z,100.00
2022-08-11T23:41:47.194Z,100.00
2022-08-11T23:45:09.634Z,100.00
2022-08-11T23:48:34.297Z,100.00
2022-08-11T23:51:57.993Z,100.00
2022-08-11T23:55:18.419Z,100.00
2022-08-11T23:58:39.338Z,100.00
